createdAt,value
2019-01-10T00:02:27.207Z,7.47
2019-01-10T00:04:54.746Z,7.27
2019-01-10T00:07:21.917Z,8.17
2019-01-10T00:09:49.297Z,8.13
2019-01-10T00:12:16.520Z,8.63
2019-01-10T00:14:43.779Z,7.77
2019-01-10T00:17:11.357Z,7.83
2019-01-10T00:19:38.737Z,7.80
2019-01-10T00:22:07.209Z,8.00
2019-01-10T00:24:34.807Z,7.23
2019-01-10T00:27:02.038Z,7.80
2019-01-10T00:29:29.112Z,8.17
2019-01-10T00:31:56.938Z,8.00
2019-01-10T00:34:24.216Z,8.53
2019-01-10T00:36:51.709Z,7.57
2019-01-10T00:39:19.218Z,7.70
2019-01-10T00:41:46.938Z,8.27
2019-01-10T00:44:14.196Z,7.63
2019-01-10T00:46:41.678Z,8.10
2019-01-10T00:49:09.608Z,7.90
2019-01-10T00:51:37.150Z,8.33
2019-01-10T00:54:04.998Z,8.03
2019-01-10T00:56:32.137Z,8.47
2019-01-10T00:58:59.468Z,9.00
2019-01-10T01:01:27.087Z,8.20
2019-01-10T01:03:54.767Z,8.47
2019-01-10T01:06:22.178Z,8.13
2019-01-10T01:09:09.420Z,8.83
2019-01-10T01:11:36.856Z,7.87
2019-01-10T01:14:04.578Z,8.07
2019-01-10T01:16:31.971Z,8.40
2019-01-10T01:18:59.406Z,8.60
2019-01-10T01:21:26.969Z,8.20
2019-01-10T01:24:14.305Z,8.33
2019-01-10T01:26:42.059Z,7.93
2019-01-10T01:29:10.137Z,8.70
2019-01-10T01:31:37.958Z,8.67
2019-01-10T01:34:05.358Z,8.50
2019-01-10T01:36:32.677Z,8.50
2019-01-10T01:39:00.419Z,8.90
2019-01-10T01:41:27.848Z,8.47
2019-01-10T01:43:55.137Z,8.70
2019-01-10T01:46:22.436Z,8.27
2019-01-10T01:48:49.887Z,8.40
2019-01-10T01:51:17.478Z,8.57
2019-01-10T01:53:44.937Z,8.87
2019-01-10T01:56:12.557Z,8.43
2019-01-10T01:58:40.109Z,8.83
2019-01-10T02:01:07.457Z,8.83
2019-01-10T02:03:34.907Z,7.97
2019-01-10T02:06:02.407Z,8.13
2019-01-10T02:08:29.758Z,9.13
2019-01-10T02:10:57.291Z,8.43
2019-01-10T02:13:24.548Z,9.00
2019-01-10T02:15:52.137Z,7.97
2019-01-10T02:18:19.528Z,8.03
2019-01-10T02:20:46.947Z,9.10
2019-01-10T02:23:14.249Z,8.67
2019-01-10T02:25:41.378Z,8.90
2019-01-10T02:28:08.606Z,8.90
2019-01-10T02:30:41.853Z,8.37
2019-01-10T02:33:05.588Z,8.33
2019-01-10T02:35:33.499Z,7.90
2019-01-10T02:38:01.238Z,8.27
2019-01-10T02:40:28.538Z,8.10
2019-01-10T02:42:55.918Z,7.60
2019-01-10T02:45:23.359Z,8.70
2019-01-10T02:47:50.805Z,7.90
2019-01-10T02:50:20.680Z,8.23
2019-01-10T02:52:48.241Z,7.30
2019-01-10T02:55:16.030Z,7.87
2019-01-10T02:57:43.408Z,8.00
2019-01-10T03:00:22.241Z,7.27
2019-01-10T03:02:49.750Z,7.17
2019-01-10T03:05:18.897Z,7.77
2019-01-10T03:07:46.794Z,7.80
2019-01-10T03:10:18.948Z,7.30
2019-01-10T03:12:46.249Z,7.07
2019-01-10T03:15:14.154Z,6.70
2019-01-10T03:17:41.508Z,7.23
2019-01-10T03:20:21.801Z,7.67
2019-01-10T03:22:56.751Z,7.63
2019-01-10T03:25:24.158Z,7.37
2019-01-10T03:27:51.579Z,7.87
2019-01-10T03:30:19.392Z,7.83
2019-01-10T03:32:47.148Z,7.33
2019-01-10T03:35:15.017Z,7.70
2019-01-10T03:37:42.610Z,7.63
2019-01-10T03:40:19.030Z,7.83
2019-01-10T03:42:46.460Z,8.17
2019-01-10T03:45:17.010Z,9.47
2019-01-10T03:47:44.469Z,8.40
2019-01-10T03:50:14.728Z,8.80
2019-01-10T03:52:42.277Z,8.77
2019-01-10T03:55:09.649Z,9.67
2019-01-10T03:57:37.315Z,8.80
2019-01-10T04:00:15.880Z,8.27
2019-01-10T04:02:43.229Z,8.03
2019-01-10T04:05:10.918Z,8.77
2019-01-10T04:07:38.024Z,8.77
2019-01-10T04:10:07.908Z,8.00
2019-01-10T04:12:35.838Z,8.03
2019-01-10T04:15:04.600Z,8.00
2019-01-10T04:17:32.418Z,8.07
2019-01-10T04:20:00.183Z,8.37
2019-01-10T04:22:27.617Z,7.33
2019-01-10T04:24:55.178Z,7.57
2019-01-10T04:27:22.497Z,7.67
2019-01-10T04:29:50.092Z,7.70
2019-01-10T04:32:17.382Z,7.70
2019-01-10T04:34:44.901Z,7.63
2019-01-10T04:37:32.017Z,7.40
2019-01-10T04:39:59.330Z,7.90
2019-01-10T04:42:26.926Z,8.00
2019-01-10T04:44:54.459Z,7.37
2019-01-10T04:47:21.749Z,7.53
2019-01-10T04:49:49.158Z,7.50
2019-01-10T04:52:16.538Z,7.67
2019-01-10T04:54:44.099Z,8.27
2019-01-10T04:57:11.501Z,7.97
2019-01-10T04:59:38.872Z,8.10
2019-01-10T05:02:06.247Z,8.23
2019-01-10T05:04:33.598Z,8.00
2019-01-10T05:07:00.929Z,7.50
2019-01-10T05:09:28.159Z,7.93
2019-01-10T05:11:55.620Z,8.20
2019-01-10T05:14:22.960Z,8.07
2019-01-10T05:16:50.464Z,8.03
2019-01-10T05:19:17.808Z,7.83
2019-01-10T05:21:45.557Z,7.93
2019-01-10T05:24:13.360Z,7.83
2019-01-10T05:26:40.799Z,8.40
2019-01-10T05:29:08.425Z,8.77
2019-01-10T05:31:35.519Z,8.27
2019-01-10T05:34:03.099Z,8.50
2019-01-10T05:36:30.247Z,8.63
2019-01-10T05:38:57.737Z,8.87
2019-01-10T05:41:25.191Z,9.20
2019-01-10T05:43:52.578Z,9.17
2019-01-10T05:46:20.209Z,8.50
2019-01-10T05:48:47.529Z,9.23
2019-01-10T05:51:15.570Z,9.03
2019-01-10T05:53:43.190Z,8.83
2019-01-10T05:56:15.670Z,9.10
2019-01-10T05:58:39.860Z,9.70
2019-01-10T06:01:07.778Z,9.13
2019-01-10T06:03:35.437Z,9.83
2019-01-10T06:06:02.997Z,9.40
2019-01-10T06:08:30.347Z,9.17
2019-01-10T06:10:57.817Z,9.23
2019-01-10T06:13:25.289Z,9.87
2019-01-10T06:15:52.747Z,8.57
2019-01-10T06:18:20.461Z,9.17
2019-01-10T06:20:47.897Z,9.37
2019-01-10T06:23:15.237Z,9.10
2019-01-10T06:25:42.658Z,9.10
2019-01-10T06:28:10.167Z,8.70
2019-01-10T06:30:37.698Z,8.60
2019-01-10T06:33:05.439Z,9.10
2019-01-10T06:35:32.838Z,9.43
2019-01-10T06:38:00.328Z,8.77
2019-01-10T06:40:27.807Z,10.00
2019-01-10T06:42:55.918Z,9.43
2019-01-10T06:45:23.477Z,9.20
2019-01-10T06:47:51.108Z,10.10
2019-01-10T06:50:18.573Z,9.43
2019-01-10T06:52:45.998Z,9.70
2019-01-10T06:55:13.717Z,9.40
2019-01-10T06:57:41.491Z,9.00
2019-01-10T07:00:21.068Z,9.07
2019-01-10T07:02:48.567Z,9.13
2019-01-10T07:05:15.917Z,9.27
2019-01-10T07:07:43.417Z,9.87
2019-01-10T07:10:16.127Z,9.73
2019-01-10T07:12:44.097Z,9.33
2019-01-10T07:15:11.646Z,9.10
2019-01-10T07:17:39.109Z,9.03
2019-01-10T07:20:09.609Z,9.63
2019-01-10T07:22:44.711Z,9.07
2019-01-10T07:25:12.617Z,9.20
2019-01-10T07:27:40.109Z,9.67
2019-01-10T07:30:12.578Z,9.90
2019-01-10T07:32:39.887Z,9.53
2019-01-10T07:35:09.111Z,8.93
2019-01-10T07:37:36.958Z,8.80
2019-01-10T07:40:11.890Z,9.13
2019-01-10T07:42:39.489Z,8.67
2019-01-10T07:45:15.138Z,8.67
2019-01-10T07:47:49.187Z,9.07
2019-01-10T07:50:19.168Z,8.83
2019-01-10T07:52:47.757Z,9.00
2019-01-10T07:55:15.320Z,9.07
2019-01-10T07:57:42.658Z,9.23
2019-01-10T08:00:17.167Z,8.90
2019-01-10T08:02:44.610Z,9.10
2019-01-10T08:05:12.867Z,8.60
2019-01-10T08:07:40.819Z,8.47
2019-01-10T08:10:13.047Z,8.50
2019-01-10T08:12:40.287Z,9.00
2019-01-10T08:15:12.578Z,8.33
2019-01-10T08:17:40.127Z,9.60
2019-01-10T08:20:08.751Z,9.13
2019-01-10T08:22:36.057Z,9.37
2019-01-10T08:25:07.378Z,9.50
2019-01-10T08:27:34.727Z,9.87
2019-01-10T08:30:02.978Z,11.53
2019-01-10T08:32:30.260Z,10.93
2019-01-10T08:34:57.727Z,11.27
2019-01-10T08:37:25.307Z,11.40
2019-01-10T08:39:52.817Z,10.10
2019-01-10T08:42:21.187Z,9.53
2019-01-10T08:44:48.578Z,9.80
2019-01-10T08:47:15.908Z,9.60
2019-01-10T08:49:43.359Z,9.67
2019-01-10T08:52:10.890Z,9.43
2019-01-10T08:54:38.319Z,9.57
2019-01-10T08:57:06.037Z,9.60
2019-01-10T08:59:33.288Z,9.60
2019-01-10T09:02:00.732Z,9.57
2019-01-10T09:04:28.068Z,9.77
2019-01-10T09:06:55.658Z,9.93
2019-01-10T09:09:23.058Z,9.07
2019-01-10T09:11:50.477Z,9.83
2019-01-10T09:14:17.868Z,8.87
2019-01-10T09:16:45.598Z,9.50
2019-01-10T09:19:13.049Z,8.40
2019-01-10T09:21:40.427Z,8.77
2019-01-10T09:24:07.887Z,9.10
2019-01-10T09:26:37.767Z,9.97
2019-01-10T09:29:04.566Z,8.53
2019-01-10T09:31:31.980Z,8.57
2019-01-10T09:33:59.290Z,8.23
2019-01-10T09:36:26.680Z,8.87
2019-01-10T09:38:53.947Z,9.30
2019-01-10T09:41:21.308Z,9.03
2019-01-10T09:43:48.620Z,9.27
2019-01-10T09:46:16.039Z,8.93
2019-01-10T09:48:43.577Z,8.87
2019-01-10T09:51:11.060Z,8.47
2019-01-10T09:53:38.508Z,8.53
2019-01-10T09:56:06.138Z,8.80
2019-01-10T09:58:33.383Z,9.20
2019-01-10T10:01:00.867Z,8.97
2019-01-10T10:03:28.257Z,9.00
2019-01-10T10:05:55.672Z,9.20
2019-01-10T10:08:23.088Z,8.30
2019-01-10T10:10:50.398Z,9.73
2019-01-10T10:13:17.704Z,9.10
2019-01-10T10:15:52.314Z,9.43
2019-01-10T10:18:14.317Z,9.23
2019-01-10T10:20:41.677Z,9.40
2019-01-10T10:23:09.329Z,9.50
2019-01-10T10:25:36.528Z,9.47
2019-01-10T10:28:04.377Z,8.70
2019-01-10T10:30:32.327Z,8.87
2019-01-10T10:32:59.686Z,9.27
2019-01-10T10:35:27.129Z,10.50
2019-01-10T10:37:54.538Z,9.40
2019-01-10T10:40:22.108Z,9.07
2019-01-10T10:42:49.657Z,9.23
2019-01-10T10:45:18.948Z,9.73
2019-01-10T10:47:46.637Z,8.83
2019-01-10T10:50:24.189Z,10.07
2019-01-10T10:52:51.502Z,9.23
2019-01-10T10:55:19.159Z,8.90
2019-01-10T10:57:46.562Z,9.37
2019-01-10T11:00:18.779Z,8.37
2019-01-10T11:02:46.640Z,9.40
2019-01-10T11:05:15.007Z,9.20
2019-01-10T11:07:42.630Z,8.63
2019-01-10T11:10:14.851Z,9.93
2019-01-10T11:12:42.579Z,9.10
2019-01-10T11:15:10.967Z,9.60
2019-01-10T11:17:38.567Z,9.00
2019-01-10T11:20:10.669Z,9.43
2019-01-10T11:22:38.058Z,9.20
2019-01-10T11:25:11.330Z,8.67
2019-01-10T11:27:38.757Z,9.00
2019-01-10T11:30:11.396Z,8.27
2019-01-10T11:32:38.719Z,8.17
2019-01-10T11:35:06.483Z,8.00
2019-01-10T11:37:33.799Z,8.03
2019-01-10T11:40:01.198Z,8.10
2019-01-10T11:42:28.929Z,7.63
2019-01-10T11:44:56.665Z,8.17
2019-01-10T11:47:24.058Z,8.00
2019-01-10T11:49:51.358Z,7.80
2019-01-10T11:52:18.858Z,7.30
2019-01-10T11:54:46.762Z,7.10
2019-01-10T11:57:14.002Z,7.27
2019-01-10T11:59:41.407Z,7.30
2019-01-10T12:02:08.920Z,7.20
2019-01-10T12:04:36.507Z,6.67
2019-01-10T12:07:04.149Z,7.23
2019-01-10T12:09:31.399Z,7.47
2019-01-10T12:11:58.861Z,6.57
2019-01-10T12:14:26.588Z,6.90
2019-01-10T12:16:53.980Z,8.30
2019-01-10T12:19:21.490Z,8.37
2019-01-10T12:21:48.788Z,7.40
2019-01-10T12:24:16.148Z,7.30
2019-01-10T12:26:43.607Z,6.83
2019-01-10T12:29:11.007Z,6.63
2019-01-10T12:31:38.777Z,7.37
2019-01-10T12:34:05.998Z,6.87
2019-01-10T12:36:33.787Z,7.50
2019-01-10T12:39:03.414Z,6.77
2019-01-10T12:41:30.459Z,6.17
2019-01-10T12:43:57.887Z,6.73
2019-01-10T12:46:25.269Z,6.97
2019-01-10T12:48:52.779Z,6.90
2019-01-10T12:51:20.298Z,6.57
2019-01-10T12:53:47.817Z,7.13
2019-01-10T12:56:15.617Z,6.23
2019-01-10T12:58:42.908Z,6.57
2019-01-10T13:01:10.358Z,6.17
2019-01-10T13:03:37.771Z,6.50
2019-01-10T13:06:05.700Z,6.27
2019-01-10T13:08:32.948Z,6.27
2019-01-10T13:11:00.431Z,6.10
2019-01-10T13:13:27.807Z,6.03
2019-01-10T13:15:55.297Z,6.37
2019-01-10T13:18:22.619Z,6.53
2019-01-10T13:20:50.478Z,5.87
2019-01-10T13:23:17.799Z,5.60
2019-01-10T13:25:45.327Z,6.20
2019-01-10T13:28:12.527Z,6.07
2019-01-10T13:30:39.574Z,5.20
2019-01-10T13:33:06.939Z,6.13
2019-01-10T13:35:34.378Z,6.40
2019-01-10T13:38:01.967Z,6.37
2019-01-10T13:40:29.327Z,6.50
2019-01-10T13:42:56.927Z,6.10
2019-01-10T13:45:24.829Z,6.20
2019-01-10T13:47:52.391Z,6.60
2019-01-10T13:50:23.759Z,5.97
2019-01-10T13:52:51.347Z,6.23
2019-01-10T13:55:19.860Z,6.07
2019-01-10T13:57:47.569Z,6.67
2019-01-10T14:00:20.460Z,6.37
2019-01-10T14:02:47.807Z,6.83
2019-01-10T14:05:15.669Z,6.13
2019-01-10T14:07:42.998Z,6.17
2019-01-10T14:10:13.880Z,5.47
2019-01-10T14:12:41.198Z,5.70
2019-01-10T14:15:14.277Z,5.83
2019-01-10T14:17:41.822Z,4.97
2019-01-10T14:20:11.348Z,5.23
2019-01-10T14:22:39.033Z,5.00
2019-01-10T14:25:07.051Z,4.67
2019-01-10T14:27:34.687Z,6.37
2019-01-10T14:30:09.737Z,6.20
2019-01-10T14:32:37.278Z,5.27
2019-01-10T14:35:05.237Z,4.53
2019-01-10T14:37:32.488Z,6.20
2019-01-10T14:39:59.788Z,4.70
2019-01-10T14:42:27.098Z,5.17
2019-01-10T14:44:54.568Z,3.60
2019-01-10T14:47:21.845Z,3.90
2019-01-10T14:49:49.269Z,4.33
2019-01-10T14:52:16.540Z,4.47
2019-01-10T14:54:43.969Z,6.50
2019-01-10T14:57:11.477Z,6.47
2019-01-10T14:59:38.927Z,6.57
2019-01-10T15:02:06.438Z,5.40
2019-01-10T15:04:33.819Z,5.00
2019-01-10T15:07:01.170Z,4.90
2019-01-10T15:09:28.717Z,4.00
2019-01-10T15:11:56.328Z,3.90
2019-01-10T15:14:23.379Z,4.20
2019-01-10T15:16:51.476Z,4.30
2019-01-10T15:19:19.529Z,3.63
2019-01-10T15:21:47.588Z,4.00
2019-01-10T15:24:16.648Z,4.20
2019-01-10T15:26:44.200Z,4.10
2019-01-10T15:29:14.977Z,3.40
2019-01-10T15:31:43.687Z,4.00
2019-01-10T15:34:11.417Z,4.00
2019-01-10T15:36:39.013Z,3.97
2019-01-10T15:39:07.857Z,4.77
2019-01-10T15:41:35.556Z,4.77
2019-01-10T15:44:03.668Z,4.57
2019-01-10T15:46:30.892Z,4.40
2019-01-10T15:48:59.758Z,4.07
2019-01-10T15:51:27.327Z,3.83
2019-01-10T15:53:55.148Z,3.93
2019-01-10T15:56:23.207Z,4.03
2019-01-10T15:58:50.539Z,3.80
2019-01-10T16:01:18.568Z,5.30
2019-01-10T16:03:45.753Z,4.50
2019-01-10T16:06:13.179Z,4.00
2019-01-10T16:08:42.889Z,4.33
2019-01-10T16:11:10.377Z,3.90
2019-01-10T16:13:37.718Z,4.53
2019-01-10T16:16:05.407Z,4.43
2019-01-10T16:18:32.738Z,4.57
2019-01-10T16:21:00.536Z,3.40
2019-01-10T16:23:27.947Z,3.70
2019-01-10T16:25:55.819Z,3.60
2019-01-10T16:28:23.279Z,4.30
2019-01-10T16:30:51.011Z,4.53
2019-01-10T16:33:18.340Z,4.73
2019-01-10T16:35:46.039Z,4.63
2019-01-10T16:38:13.511Z,3.87
2019-01-10T16:40:40.941Z,4.80
2019-01-10T16:43:11.876Z,4.50
2019-01-10T16:45:38.817Z,4.10
2019-01-10T16:48:06.569Z,4.23
2019-01-10T16:50:34.039Z,3.87
2019-01-10T16:53:01.488Z,3.97
2019-01-10T16:55:28.927Z,3.97
2019-01-10T16:57:56.418Z,4.20
2019-01-10T17:00:30.158Z,4.27
2019-01-10T17:02:57.221Z,4.40
2019-01-10T17:05:24.857Z,4.93
2019-01-10T17:07:52.439Z,4.03
2019-01-10T17:10:20.539Z,3.77
2019-01-10T17:12:47.949Z,3.77
2019-01-10T17:15:15.858Z,3.57
2019-01-10T17:17:43.736Z,4.00
2019-01-10T17:20:15.940Z,4.00
2019-01-10T17:22:43.518Z,3.90
2019-01-10T17:25:11.247Z,3.77
2019-01-10T17:27:38.576Z,3.73
2019-01-10T17:30:11.259Z,3.53
2019-01-10T17:32:38.519Z,3.80
2019-01-10T17:35:11.299Z,4.20
2019-01-10T17:37:38.719Z,3.30
2019-01-10T17:40:11.907Z,3.63
2019-01-10T17:42:39.757Z,3.50
2019-01-10T17:45:13.669Z,3.70
2019-01-10T17:47:44.177Z,4.17
2019-01-10T17:50:17.408Z,3.80
2019-01-10T17:52:45.149Z,4.43
2019-01-10T17:55:12.799Z,3.50
2019-01-10T17:57:40.337Z,4.40
2019-01-10T18:00:20.991Z,4.93
2019-01-10T18:02:48.407Z,5.37
2019-01-10T18:05:15.590Z,5.83
2019-01-10T18:07:43.108Z,5.03
2019-01-10T18:10:14.667Z,5.63
2019-01-10T18:12:42.098Z,5.50
2019-01-10T18:15:12.867Z,5.50
2019-01-10T18:17:40.269Z,5.47
2019-01-10T18:20:12.950Z,5.07
2019-01-10T18:22:40.479Z,5.47
2019-01-10T18:25:10.529Z,4.53
2019-01-10T18:27:37.949Z,4.80
2019-01-10T18:30:13.117Z,4.83
2019-01-10T18:32:40.555Z,5.07
2019-01-10T18:35:09.349Z,5.20
2019-01-10T18:37:36.770Z,5.27
2019-01-10T18:40:07.810Z,5.27
2019-01-10T18:42:35.211Z,5.30
2019-01-10T18:45:05.493Z,4.83
2019-01-10T18:47:32.869Z,5.00
2019-01-10T18:50:00.230Z,4.67
2019-01-10T18:52:27.819Z,4.40
2019-01-10T18:55:00.126Z,4.30
2019-01-10T18:57:24.195Z,4.73
2019-01-10T18:59:51.719Z,4.90
2019-01-10T19:02:18.949Z,4.47
2019-01-10T19:04:46.457Z,5.17
2019-01-10T19:07:13.739Z,5.17
2019-01-10T19:09:41.160Z,5.37
2019-01-10T19:12:08.590Z,3.87
2019-01-10T19:14:35.859Z,4.20
2019-01-10T19:17:03.270Z,4.27
2019-01-10T19:19:30.714Z,4.90
2019-01-10T19:21:58.427Z,4.70
2019-01-10T19:24:26.057Z,4.00
2019-01-10T19:26:53.620Z,5.00
2019-01-10T19:29:21.011Z,4.00
2019-01-10T19:31:50.081Z,4.80
2019-01-10T19:34:17.529Z,4.90
2019-01-10T19:36:45.159Z,3.70
2019-01-10T19:39:12.797Z,3.87
2019-01-10T19:41:40.058Z,4.63
2019-01-10T19:44:07.599Z,4.60
2019-01-10T19:46:35.437Z,3.40
2019-01-10T19:49:04.092Z,3.33
2019-01-10T19:51:31.789Z,3.80
2019-01-10T19:53:59.255Z,4.07
2019-01-10T19:56:26.759Z,2.60
2019-01-10T19:58:54.438Z,3.30
2019-01-10T20:01:23.589Z,2.90
2019-01-10T20:03:51.050Z,2.97
2019-01-10T20:06:18.623Z,2.63
2019-01-10T20:08:46.629Z,3.27
2019-01-10T20:11:13.676Z,2.87
2019-01-10T20:13:41.074Z,3.10
2019-01-10T20:16:08.687Z,2.97
2019-01-10T20:18:36.227Z,2.80
2019-01-10T20:21:03.838Z,3.10
2019-01-10T20:23:31.699Z,3.00
2019-01-10T20:25:59.230Z,2.70
2019-01-10T20:28:26.657Z,2.60
2019-01-10T20:30:54.029Z,3.10
2019-01-10T20:33:21.489Z,3.23
2019-01-10T20:35:48.878Z,2.67
2019-01-10T20:38:16.268Z,3.23
2019-01-10T20:40:43.649Z,3.47
2019-01-10T20:43:11.228Z,2.97
2019-01-10T20:45:38.440Z,3.20
2019-01-10T20:48:06.009Z,2.90
2019-01-10T20:50:33.319Z,2.70
2019-01-10T20:53:00.858Z,2.90
2019-01-10T20:55:28.379Z,2.63
2019-01-10T20:57:56.099Z,2.90
2019-01-10T21:00:24.258Z,2.80
2019-01-10T21:02:51.799Z,3.00
2019-01-10T21:05:19.578Z,2.03
2019-01-10T21:07:48.847Z,2.07
2019-01-10T21:10:21.719Z,1.90
2019-01-10T21:12:49.829Z,1.90
2019-01-10T21:15:20.608Z,1.80
2019-01-10T21:17:49.326Z,2.63
2019-01-10T21:20:16.899Z,2.40
2019-01-10T21:22:45.187Z,2.73
2019-01-10T21:25:14.120Z,2.60
2019-01-10T21:27:42.083Z,4.40
2019-01-10T21:30:17.753Z,2.93
2019-01-10T21:32:46.057Z,3.97
2019-01-10T21:35:13.680Z,3.67
2019-01-10T21:37:40.977Z,3.40
2019-01-10T21:40:16.078Z,2.50
2019-01-10T21:42:43.699Z,2.33
2019-01-10T21:45:15.517Z,2.43
2019-01-10T21:47:42.818Z,1.90
2019-01-10T21:50:14.670Z,1.90
2019-01-10T21:52:42.277Z,1.90
2019-01-10T21:55:10.368Z,1.80
2019-01-10T21:57:38.000Z,1.90
2019-01-10T22:00:16.139Z,1.50
2019-01-10T22:02:43.751Z,1.90
2019-01-10T22:05:11.229Z,2.03
2019-01-10T22:07:38.597Z,2.23
2019-01-10T22:10:10.107Z,1.90
2019-01-10T22:12:37.580Z,1.80
2019-01-10T22:15:09.723Z,2.10
2019-01-10T22:17:37.518Z,2.03
2019-01-10T22:20:09.918Z,2.40
2019-01-10T22:22:37.379Z,2.67
2019-01-10T22:25:06.529Z,2.80
2019-01-10T22:27:34.158Z,2.97
2019-01-10T22:30:01.748Z,3.00
2019-01-10T22:32:29.188Z,2.37
2019-01-10T22:34:56.697Z,2.80
2019-01-10T22:37:28.899Z,2.77
2019-01-10T22:39:53.007Z,2.60
2019-01-10T22:42:20.347Z,2.77
2019-01-10T22:44:47.697Z,3.10
2019-01-10T22:47:15.067Z,3.07
2019-01-10T22:49:42.478Z,2.90
2019-01-10T22:52:09.688Z,3.30
2019-01-10T22:54:36.980Z,3.03
2019-01-10T22:57:04.527Z,3.27
2019-01-10T22:59:32.008Z,3.03
2019-01-10T23:01:59.999Z,3.03
2019-01-10T23:04:28.759Z,3.30
2019-01-10T23:06:56.148Z,3.10
2019-01-10T23:09:23.638Z,3.07
2019-01-10T23:11:52.490Z,2.80
2019-01-10T23:14:19.646Z,3.37
2019-01-10T23:16:47.378Z,2.90
2019-01-10T23:19:14.639Z,3.47
2019-01-10T23:21:42.067Z,3.00
2019-01-10T23:24:10.837Z,3.77
2019-01-10T23:26:38.814Z,3.10
2019-01-10T23:29:07.738Z,3.60
2019-01-10T23:31:35.198Z,3.33
2019-01-10T23:34:05.948Z,3.57
2019-01-10T23:36:33.288Z,3.60
2019-01-10T23:39:14.610Z,3.37
2019-01-10T23:41:42.218Z,3.20
2019-01-10T23:44:09.750Z,3.23
2019-01-10T23:46:37.528Z,3.37
2019-01-10T23:49:04.908Z,3.50
2019-01-10T23:51:32.327Z,3.80
2019-01-10T23:53:59.847Z,3.23
2019-01-10T23:56:27.204Z,3.90
2019-01-10T23:58:54.641Z,3.50
